sensor_id;sensor_type;location;lat;lon;timestamp;P1;durP1;ratioP1;P2;durP2;ratioP2
80778;SDS011;70170;47.856;10.956;2023-06-19T00:00:23;15.35;;;8.05;;
80778;SDS011;70170;47.856;10.956;2023-06-19T00:02:48;14.82;;;8.00;;
80778;SDS011;70170;47.856;10.956;2023-06-19T00:05:13;10.50;;;7.88;;
80778;SDS011;70170;47.856;10.956;2023-06-19T00:07:39;11.65;;;8.45;;
80778;SDS011;70170;47.856;10.956;2023-06-19T00:10:05;11.48;;;7.80;;
80778;SDS011;70170;47.856;10.956;2023-06-19T00:12:31;9.65;;;7.95;;
80778;SDS011;70170;47.856;10.956;2023-06-19T00:14:56;11.43;;;8.48;;
80778;SDS011;70170;47.856;10.956;2023-06-19T00:17:21;12.32;;;8.85;;
80778;SDS011;70170;47.856;10.956;2023-06-19T00:19:47;10.32;;;7.47;;
80778;SDS011;70170;47.856;10.956;2023-06-19T00:22:13;13.63;;;9.20;;
80778;SDS011;70170;47.856;10.956;2023-06-19T00:24:39;11.15;;;8.65;;
80778;SDS011;70170;47.856;10.956;2023-06-19T00:27:04;12.55;;;8.73;;
80778;SDS011;70170;47.856;10.956;2023-06-19T00:29:31;10.65;;;8.48;;
80778;SDS011;70170;47.856;10.956;2023-06-19T00:31:56;11.00;;;8.35;;
80778;SDS011;70170;47.856;10.956;2023-06-19T00:34:22;10.25;;;8.15;;
80778;SDS011;70170;47.856;10.956;2023-06-19T00:36:49;14.25;;;9.35;;
80778;SDS011;70170;47.856;10.956;2023-06-19T00:39:15;12.00;;;9.57;;
80778;SDS011;70170;47.856;10.956;2023-06-19T00:41:40;14.35;;;10.25;;
80778;SDS011;70170;47.856;10.956;2023-06-19T00:44:08;14.30;;;10.43;;
80778;SDS011;70170;47.856;10.956;2023-06-19T00:46:34;17.33;;;10.90;;
80778;SDS011;70170;47.856;10.956;2023-06-19T00:49:02;17.65;;;11.90;;
80778;SDS011;70170;47.856;10.956;2023-06-19T00:51:28;15.30;;;10.63;;
80778;SDS011;70170;47.856;10.956;2023-06-19T00:53:53;16.30;;;10.88;;
80778;SDS011;70170;47.856;10.956;2023-06-19T00:56:18;14.88;;;10.57;;
80778;SDS011;70170;47.856;10.956;2023-06-19T00:58:44;13.30;;;10.05;;
80778;SDS011;70170;47.856;10.956;2023-06-19T01:01:09;12.18;;;9.45;;
80778;SDS011;70170;47.856;10.956;2023-06-19T01:03:35;13.57;;;9.32;;
80778;SDS011;70170;47.856;10.956;2023-06-19T01:06:01;13.88;;;9.77;;
80778;SDS011;70170;47.856;10.956;2023-06-19T01:08:37;11.77;;;7.82;;
80778;SDS011;70170;47.856;10.956;2023-06-19T01:11:08;11.88;;;8.52;;
80778;SDS011;70170;47.856;10.956;2023-06-19T01:13:47;13.57;;;8.82;;
80778;SDS011;70170;47.856;10.956;2023-06-19T01:16:15;13.52;;;9.02;;
80778;SDS011;70170;47.856;10.956;2023-06-19T01:18:42;12.27;;;9.32;;
80778;SDS011;70170;47.856;10.956;2023-06-19T01:21:17;13.70;;;9.02;;
80778;SDS011;70170;47.856;10.956;2023-06-19T01:23:43;20.02;;;8.80;;
80778;SDS011;70170;47.856;10.956;2023-06-19T01:26:09;11.98;;;9.00;;
80778;SDS011;70170;47.856;10.956;2023-06-19T01:28:35;9.27;;;8.07;;
80778;SDS011;70170;47.856;10.956;2023-06-19T01:31:15;10.20;;;7.60;;
80778;SDS011;70170;47.856;10.956;2023-06-19T01:33:50;11.70;;;8.52;;
80778;SDS011;70170;47.856;10.956;2023-06-19T01:36:17;12.18;;;8.65;;
80778;SDS011;70170;47.856;10.956;2023-06-19T01:38:44;11.82;;;8.43;;
80778;SDS011;70170;47.856;10.956;2023-06-19T01:41:12;10.07;;;8.40;;
80778;SDS011;70170;47.856;10.956;2023-06-19T01:43:40;12.43;;;8.80;;
80778;SDS011;70170;47.856;10.956;2023-06-19T01:46:05;14.77;;;8.90;;
80778;SDS011;70170;47.856;10.956;2023-06-19T01:48:31;11.70;;;8.68;;
80778;SDS011;70170;47.856;10.956;2023-06-19T01:50:56;15.48;;;9.18;;
80778;SDS011;70170;47.856;10.956;2023-06-19T01:53:21;11.45;;;8.77;;
80778;SDS011;70170;47.856;10.956;2023-06-19T01:55:47;12.40;;;9.05;;
80778;SDS011;70170;47.856;10.956;2023-06-19T01:58:12;13.40;;;8.82;;
80778;SDS011;70170;47.856;10.956;2023-06-19T02:00:37;10.90;;;9.38;;
80778;SDS011;70170;47.856;10.956;2023-06-19T02:03:06;13.10;;;9.30;;
80778;SDS011;70170;47.856;10.956;2023-06-19T02:05:31;13.07;;;9.23;;
80778;SDS011;70170;47.856;10.956;2023-06-19T02:07:57;12.48;;;9.02;;
80778;SDS011;70170;47.856;10.956;2023-06-19T02:10:22;13.20;;;9.45;;
80778;SDS011;70170;47.856;10.956;2023-06-19T02:12:47;11.07;;;8.85;;
80778;SDS011;70170;47.856;10.956;2023-06-19T02:15:13;11.80;;;8.93;;
80778;SDS011;70170;47.856;10.956;2023-06-19T02:17:38;14.25;;;9.60;;
80778;SDS011;70170;47.856;10.956;2023-06-19T02:20:04;11.68;;;8.75;;
80778;SDS011;70170;47.856;10.956;2023-06-19T02:22:34;17.52;;;9.32;;
80778;SDS011;70170;47.856;10.956;2023-06-19T02:24:59;10.65;;;8.55;;
80778;SDS011;70170;47.856;10.956;2023-06-19T02:27:25;10.48;;;7.65;;
80778;SDS011;70170;47.856;10.956;2023-06-19T02:29:50;11.43;;;7.78;;
80778;SDS011;70170;47.856;10.956;2023-06-19T02:32:15;14.68;;;9.02;;
80778;SDS011;70170;47.856;10.956;2023-06-19T02:34:40;11.25;;;8.38;;
80778;SDS011;70170;47.856;10.956;2023-06-19T02:37:06;12.95;;;8.73;;
80778;SDS011;70170;47.856;10.956;2023-06-19T02:39:33;11.57;;;9.30;;
80778;SDS011;70170;47.856;10.956;2023-06-19T02:41:58;11.63;;;9.18;;
80778;SDS011;70170;47.856;10.956;2023-06-19T02:44:24;11.45;;;8.50;;
80778;SDS011;70170;47.856;10.956;2023-06-19T02:46:49;10.82;;;8.55;;
80778;SDS011;70170;47.856;10.956;2023-06-19T02:49:15;11.30;;;8.75;;
80778;SDS011;70170;47.856;10.956;2023-06-19T02:51:40;11.13;;;8.00;;
80778;SDS011;70170;47.856;10.956;2023-06-19T02:54:05;10.57;;;8.13;;
80778;SDS011;70170;47.856;10.956;2023-06-19T02:56:31;10.38;;;8.27;;
80778;SDS011;70170;47.856;10.956;2023-06-19T02:58:56;12.90;;;8.13;;
80778;SDS011;70170;47.856;10.956;2023-06-19T03:01:22;12.52;;;8.05;;
80778;SDS011;70170;47.856;10.956;2023-06-19T03:03:47;14.25;;;8.20;;
80778;SDS011;70170;47.856;10.956;2023-06-19T03:06:12;10.10;;;8.18;;
80778;SDS011;70170;47.856;10.956;2023-06-19T03:08:38;14.57;;;8.02;;
80778;SDS011;70170;47.856;10.956;2023-06-19T03:11:04;12.23;;;8.15;;
80778;SDS011;70170;47.856;10.956;2023-06-19T03:16:19;11.30;;;7.65;;
80778;SDS011;70170;47.856;10.956;2023-06-19T03:18:45;11.52;;;7.65;;
80778;SDS011;70170;47.856;10.956;2023-06-19T03:21:11;9.82;;;6.95;;
80778;SDS011;70170;47.856;10.956;2023-06-19T03:23:39;8.52;;;6.60;;
80778;SDS011;70170;47.856;10.956;2023-06-19T03:26:08;7.65;;;5.90;;
80778;SDS011;70170;47.856;10.956;2023-06-19T03:28:35;10.45;;;6.10;;
80778;SDS011;70170;47.856;10.956;2023-06-19T03:31:00;10.90;;;6.47;;
80778;SDS011;70170;47.856;10.956;2023-06-19T03:33:26;10.07;;;6.47;;
80778;SDS011;70170;47.856;10.956;2023-06-19T03:35:51;7.68;;;5.65;;
80778;SDS011;70170;47.856;10.956;2023-06-19T03:38:16;6.28;;;5.60;;
80778;SDS011;70170;47.856;10.956;2023-06-19T03:40:42;6.78;;;5.80;;
80778;SDS011;70170;47.856;10.956;2023-06-19T03:43:07;14.77;;;5.45;;
80778;SDS011;70170;47.856;10.956;2023-06-19T03:45:32;11.30;;;6.07;;
80778;SDS011;70170;47.856;10.956;2023-06-19T03:47:58;11.48;;;6.22;;
80778;SDS011;70170;47.856;10.956;2023-06-19T03:50:24;7.85;;;6.63;;
80778;SDS011;70170;47.856;10.956;2023-06-19T03:52:49;9.57;;;5.93;;
80778;SDS011;70170;47.856;10.956;2023-06-19T03:55:15;9.25;;;5.97;;
80778;SDS011;70170;47.856;10.956;2023-06-19T03:57:40;7.50;;;5.95;;
80778;SDS011;70170;47.856;10.956;2023-06-19T04:00:05;8.35;;;5.65;;
80778;SDS011;70170;47.856;10.956;2023-06-19T04:02:36;9.13;;;6.65;;
80778;SDS011;70170;47.856;10.956;2023-06-19T04:05:01;9.20;;;5.65;;
80778;SDS011;70170;47.856;10.956;2023-06-19T04:07:27;7.97;;;6.10;;
80778;SDS011;70170;47.856;10.956;2023-06-19T04:09:53;11.10;;;6.40;;
80778;SDS011;70170;47.856;10.956;2023-06-19T04:12:18;9.43;;;6.53;;
80778;SDS011;70170;47.856;10.956;2023-06-19T04:14:44;7.50;;;5.72;;
80778;SDS011;70170;47.856;10.956;2023-06-19T04:17:09;7.70;;;5.40;;
80778;SDS011;70170;47.856;10.956;2023-06-19T04:19:34;8.20;;;5.32;;
80778;SDS011;70170;47.856;10.956;2023-06-19T04:22:00;9.20;;;5.70;;
80778;SDS011;70170;47.856;10.956;2023-06-19T04:24:25;6.28;;;5.43;;
80778;SDS011;70170;47.856;10.956;2023-06-19T04:26:50;8.27;;;5.53;;
80778;SDS011;70170;47.856;10.956;2023-06-19T04:29:16;8.40;;;6.07;;
80778;SDS011;70170;47.856;10.956;2023-06-19T04:31:45;7.32;;;5.20;;
80778;SDS011;70170;47.856;10.956;2023-06-19T04:34:17;6.55;;;5.75;;
80778;SDS011;70170;47.856;10.956;2023-06-19T04:36:46;5.82;;;5.22;;
80778;SDS011;70170;47.856;10.956;2023-06-19T04:39:11;8.65;;;5.28;;
80778;SDS011;70170;47.856;10.956;2023-06-19T04:41:37;6.07;;;5.35;;
80778;SDS011;70170;47.856;10.956;2023-06-19T04:44:04;7.80;;;4.93;;
80778;SDS011;70170;47.856;10.956;2023-06-19T04:46:30;6.43;;;5.00;;
80778;SDS011;70170;47.856;10.956;2023-06-19T04:48:55;5.78;;;5.05;;
80778;SDS011;70170;47.856;10.956;2023-06-19T04:51:20;9.98;;;5.30;;
80778;SDS011;70170;47.856;10.956;2023-06-19T04:53:46;6.55;;;5.25;;
80778;SDS011;70170;47.856;10.956;2023-06-19T04:56:12;6.07;;;4.93;;
80778;SDS011;70170;47.856;10.956;2023-06-19T04:58:37;9.07;;;4.75;;
80778;SDS011;70170;47.856;10.956;2023-06-19T05:01:10;7.10;;;5.15;;
80778;SDS011;70170;47.856;10.956;2023-06-19T05:03:36;6.00;;;5.32;;
80778;SDS011;70170;47.856;10.956;2023-06-19T05:06:01;11.52;;;5.25;;
80778;SDS011;70170;47.856;10.956;2023-06-19T05:08:27;6.47;;;4.90;;
80778;SDS011;70170;47.856;10.956;2023-06-19T05:10:52;5.72;;;4.97;;
80778;SDS011;70170;47.856;10.956;2023-06-19T05:13:18;8.23;;;4.82;;
80778;SDS011;70170;47.856;10.956;2023-06-19T05:15:44;7.15;;;5.50;;
80778;SDS011;70170;47.856;10.956;2023-06-19T05:18:09;6.05;;;5.15;;
80778;SDS011;70170;47.856;10.956;2023-06-19T05:20:34;9.95;;;5.18;;
80778;SDS011;70170;47.856;10.956;2023-06-19T05:23:00;8.50;;;5.38;;
80778;SDS011;70170;47.856;10.956;2023-06-19T05:25:25;6.90;;;5.32;;
80778;SDS011;70170;47.856;10.956;2023-06-19T05:27:50;6.60;;;5.50;;
80778;SDS011;70170;47.856;10.956;2023-06-19T05:30:15;5.80;;;5.30;;
80778;SDS011;70170;47.856;10.956;2023-06-19T05:32:41;12.48;;;5.40;;
80778;SDS011;70170;47.856;10.956;2023-06-19T05:35:06;10.63;;;5.22;;
80778;SDS011;70170;47.856;10.956;2023-06-19T05:37:32;8.35;;;5.22;;
80778;SDS011;70170;47.856;10.956;2023-06-19T05:39:58;10.02;;;5.28;;
80778;SDS011;70170;47.856;10.956;2023-06-19T05:42:24;6.35;;;5.15;;
80778;SDS011;70170;47.856;10.956;2023-06-19T05:44:49;8.57;;;5.43;;
80778;SDS011;70170;47.856;10.956;2023-06-19T05:47:15;7.47;;;5.32;;
80778;SDS011;70170;47.856;10.956;2023-06-19T05:49:42;9.13;;;5.35;;
80778;SDS011;70170;47.856;10.956;2023-06-19T05:52:07;6.93;;;5.30;;
80778;SDS011;70170;47.856;10.956;2023-06-19T05:54:33;12.63;;;5.68;;
80778;SDS011;70170;47.856;10.956;2023-06-19T05:56:58;6.45;;;5.30;;
80778;SDS011;70170;47.856;10.956;2023-06-19T05:59:23;16.77;;;6.00;;
80778;SDS011;70170;47.856;10.956;2023-06-19T06:01:49;8.45;;;5.38;;
80778;SDS011;70170;47.856;10.956;2023-06-19T06:04:15;6.00;;;5.22;;
80778;SDS011;70170;47.856;10.956;2023-06-19T06:06:41;5.85;;;5.25;;
80778;SDS011;70170;47.856;10.956;2023-06-19T06:09:06;8.27;;;5.07;;
80778;SDS011;70170;47.856;10.956;2023-06-19T06:11:34;5.88;;;5.00;;
80778;SDS011;70170;47.856;10.956;2023-06-19T06:13:59;6.70;;;5.05;;
80778;SDS011;70170;47.856;10.956;2023-06-19T06:16:25;6.38;;;5.38;;
80778;SDS011;70170;47.856;10.956;2023-06-19T06:18:50;5.95;;;4.93;;
80778;SDS011;70170;47.856;10.956;2023-06-19T06:21:15;5.95;;;5.35;;
80778;SDS011;70170;47.856;10.956;2023-06-19T06:23:41;5.60;;;5.10;;
80778;SDS011;70170;47.856;10.956;2023-06-19T06:26:06;8.63;;;5.40;;
80778;SDS011;70170;47.856;10.956;2023-06-19T06:28:31;7.43;;;5.80;;
80778;SDS011;70170;47.856;10.956;2023-06-19T06:30:57;6.72;;;5.40;;
80778;SDS011;70170;47.856;10.956;2023-06-19T06:33:22;6.07;;;5.47;;
80778;SDS011;70170;47.856;10.956;2023-06-19T06:35:48;6.60;;;4.93;;
80778;SDS011;70170;47.856;10.956;2023-06-19T06:38:13;8.30;;;4.95;;
80778;SDS011;70170;47.856;10.956;2023-06-19T06:40:45;6.10;;;4.90;;
80778;SDS011;70170;47.856;10.956;2023-06-19T06:43:11;5.70;;;4.97;;
80778;SDS011;70170;47.856;10.956;2023-06-19T06:45:36;11.32;;;5.88;;
80778;SDS011;70170;47.856;10.956;2023-06-19T06:48:04;10.93;;;4.93;;
80778;SDS011;70170;47.856;10.956;2023-06-19T06:50:30;8.23;;;5.38;;
80778;SDS011;70170;47.856;10.956;2023-06-19T06:52:57;8.63;;;5.20;;
80778;SDS011;70170;47.856;10.956;2023-06-19T06:55:22;4.93;;;4.47;;
80778;SDS011;70170;47.856;10.956;2023-06-19T06:57:47;5.45;;;4.85;;
80778;SDS011;70170;47.856;10.956;2023-06-19T07:00:12;7.53;;;5.25;;
80778;SDS011;70170;47.856;10.956;2023-06-19T07:02:38;5.32;;;4.50;;
80778;SDS011;70170;47.856;10.956;2023-06-19T07:05:06;5.88;;;4.32;;
80778;SDS011;70170;47.856;10.956;2023-06-19T07:07:32;8.52;;;4.72;;
80778;SDS011;70170;47.856;10.956;2023-06-19T07:09:57;7.53;;;4.70;;
80778;SDS011;70170;47.856;10.956;2023-06-19T07:12:22;13.30;;;4.72;;
80778;SDS011;70170;47.856;10.956;2023-06-19T07:14:47;10.23;;;5.25;;
80778;SDS011;70170;47.856;10.956;2023-06-19T07:17:13;10.77;;;5.28;;
80778;SDS011;70170;47.856;10.956;2023-06-19T07:19:38;7.22;;;5.10;;
80778;SDS011;70170;47.856;10.956;2023-06-19T07:22:03;11.60;;;4.70;;
80778;SDS011;70170;47.856;10.956;2023-06-19T07:24:29;5.18;;;4.40;;
80778;SDS011;70170;47.856;10.956;2023-06-19T07:26:54;5.70;;;4.50;;
80778;SDS011;70170;47.856;10.956;2023-06-19T07:29:20;7.55;;;4.70;;
80778;SDS011;70170;47.856;10.956;2023-06-19T07:31:46;5.35;;;4.85;;
80778;SDS011;70170;47.856;10.956;2023-06-19T07:34:12;6.07;;;4.47;;
80778;SDS011;70170;47.856;10.956;2023-06-19T07:36:38;5.15;;;4.63;;
80778;SDS011;70170;47.856;10.956;2023-06-19T07:39:04;6.72;;;4.60;;
80778;SDS011;70170;47.856;10.956;2023-06-19T07:41:29;5.63;;;4.45;;
80778;SDS011;70170;47.856;10.956;2023-06-19T07:43:54;6.35;;;4.72;;
80778;SDS011;70170;47.856;10.956;2023-06-19T07:46:19;6.45;;;4.70;;
80778;SDS011;70170;47.856;10.956;2023-06-19T07:48:45;9.13;;;4.55;;
80778;SDS011;70170;47.856;10.956;2023-06-19T07:51:10;5.15;;;4.65;;
80778;SDS011;70170;47.856;10.956;2023-06-19T07:53:35;11.93;;;5.38;;
80778;SDS011;70170;47.856;10.956;2023-06-19T07:56:01;5.75;;;4.40;;
80778;SDS011;70170;47.856;10.956;2023-06-19T07:58:26;4.68;;;4.10;;
80778;SDS011;70170;47.856;10.956;2023-06-19T08:00:52;3.95;;;3.65;;
80778;SDS011;70170;47.856;10.956;2023-06-19T08:03:17;3.92;;;3.53;;
80778;SDS011;70170;47.856;10.956;2023-06-19T08:05:42;4.95;;;3.63;;
80778;SDS011;70170;47.856;10.956;2023-06-19T08:08:08;6.55;;;3.83;;
80778;SDS011;70170;47.856;10.956;2023-06-19T08:10:33;5.22;;;4.25;;
80778;SDS011;70170;47.856;10.956;2023-06-19T08:12:58;4.47;;;4.05;;
80778;SDS011;70170;47.856;10.956;2023-06-19T08:15:23;4.18;;;3.78;;
80778;SDS011;70170;47.856;10.956;2023-06-19T08:17:49;5.78;;;4.40;;
80778;SDS011;70170;47.856;10.956;2023-06-19T08:20:15;5.25;;;4.35;;
80778;SDS011;70170;47.856;10.956;2023-06-19T08:22:40;4.82;;;4.10;;
80778;SDS011;70170;47.856;10.956;2023-06-19T08:25:05;4.88;;;4.38;;
80778;SDS011;70170;47.856;10.956;2023-06-19T08:27:31;6.97;;;4.35;;
80778;SDS011;70170;47.856;10.956;2023-06-19T08:29:56;5.13;;;4.55;;
80778;SDS011;70170;47.856;10.956;2023-06-19T08:32:21;4.90;;;4.20;;
80778;SDS011;70170;47.856;10.956;2023-06-19T08:34:47;6.22;;;4.38;;
80778;SDS011;70170;47.856;10.956;2023-06-19T08:37:12;4.50;;;3.67;;
80778;SDS011;70170;47.856;10.956;2023-06-19T08:39:37;3.47;;;3.17;;
80778;SDS011;70170;47.856;10.956;2023-06-19T08:42:07;3.65;;;3.35;;
80778;SDS011;70170;47.856;10.956;2023-06-19T08:44:33;4.00;;;3.70;;
80778;SDS011;70170;47.856;10.956;2023-06-19T08:47:02;3.88;;;3.50;;
80778;SDS011;70170;47.856;10.956;2023-06-19T08:49:33;6.93;;;3.70;;
80778;SDS011;70170;47.856;10.956;2023-06-19T08:51:59;3.85;;;3.53;;
80778;SDS011;70170;47.856;10.956;2023-06-19T08:54:25;4.78;;;3.30;;
80778;SDS011;70170;47.856;10.956;2023-06-19T08:56:51;4.50;;;3.38;;
80778;SDS011;70170;47.856;10.956;2023-06-19T08:59:20;3.67;;;3.38;;
80778;SDS011;70170;47.856;10.956;2023-06-19T09:01:49;3.75;;;3.45;;
80778;SDS011;70170;47.856;10.956;2023-06-19T09:04:22;3.38;;;3.08;;
80778;SDS011;70170;47.856;10.956;2023-06-19T09:06:50;4.00;;;3.08;;
80778;SDS011;70170;47.856;10.956;2023-06-19T09:09:16;3.28;;;2.88;;
80778;SDS011;70170;47.856;10.956;2023-06-19T09:11:42;8.07;;;3.40;;
80778;SDS011;70170;47.856;10.956;2023-06-19T09:14:10;3.53;;;3.22;;
80778;SDS011;70170;47.856;10.956;2023-06-19T09:16:36;3.55;;;3.20;;
80778;SDS011;70170;47.856;10.956;2023-06-19T09:19:05;4.45;;;3.20;;
80778;SDS011;70170;47.856;10.956;2023-06-19T09:21:31;3.50;;;3.20;;
80778;SDS011;70170;47.856;10.956;2023-06-19T09:24:03;5.68;;;3.08;;
80778;SDS011;70170;47.856;10.956;2023-06-19T09:26:30;6.95;;;3.38;;
80778;SDS011;70170;47.856;10.956;2023-06-19T09:28:55;3.78;;;3.25;;
80778;SDS011;70170;47.856;10.956;2023-06-19T09:31:20;3.00;;;2.80;;
80778;SDS011;70170;47.856;10.956;2023-06-19T09:33:55;3.28;;;2.90;;
80778;SDS011;70170;47.856;10.956;2023-06-19T09:36:21;3.30;;;2.88;;
80778;SDS011;70170;47.856;10.956;2023-06-19T09:38:47;3.25;;;2.95;;
80778;SDS011;70170;47.856;10.956;2023-06-19T09:41:13;3.00;;;2.80;;
80778;SDS011;70170;47.856;10.956;2023-06-19T09:43:42;6.90;;;3.22;;
80778;SDS011;70170;47.856;10.956;2023-06-19T09:46:08;3.47;;;3.17;;
80778;SDS011;70170;47.856;10.956;2023-06-19T09:48:35;4.20;;;3.10;;
80778;SDS011;70170;47.856;10.956;2023-06-19T09:51:20;3.65;;;3.00;;
80778;SDS011;70170;47.856;10.956;2023-06-19T09:53:50;5.65;;;3.28;;
80778;SDS011;70170;47.856;10.956;2023-06-19T09:56:16;4.35;;;3.08;;
80778;SDS011;70170;47.856;10.956;2023-06-19T09:58:46;3.70;;;2.90;;
80778;SDS011;70170;47.856;10.956;2023-06-19T10:01:14;3.70;;;3.22;;
80778;SDS011;70170;47.856;10.956;2023-06-19T10:03:43;4.70;;;3.00;;
80778;SDS011;70170;47.856;10.956;2023-06-19T10:06:12;5.07;;;3.35;;
80778;SDS011;70170;47.856;10.956;2023-06-19T10:08:40;3.95;;;3.33;;
80778;SDS011;70170;47.856;10.956;2023-06-19T10:11:07;3.50;;;3.30;;
80778;SDS011;70170;47.856;10.956;2023-06-19T10:13:33;3.10;;;2.90;;
80778;SDS011;70170;47.856;10.956;2023-06-19T10:16:06;3.55;;;3.13;;
80778;SDS011;70170;47.856;10.956;2023-06-19T10:18:32;2.95;;;2.75;;
80778;SDS011;70170;47.856;10.956;2023-06-19T10:21:15;3.25;;;3.05;;
80778;SDS011;70170;47.856;10.956;2023-06-19T10:23:51;3.35;;;3.10;;
80778;SDS011;70170;47.856;10.956;2023-06-19T10:26:18;3.58;;;3.28;;
80778;SDS011;70170;47.856;10.956;2023-06-19T10:28:46;3.58;;;3.28;;
80778;SDS011;70170;47.856;10.956;2023-06-19T10:31:13;3.50;;;3.20;;
80778;SDS011;70170;47.856;10.956;2023-06-19T10:33:38;3.63;;;3.33;;
80778;SDS011;70170;47.856;10.956;2023-06-19T10:36:16;4.28;;;3.20;;
80778;SDS011;70170;47.856;10.956;2023-06-19T10:38:44;13.43;;;3.33;;
80778;SDS011;70170;47.856;10.956;2023-06-19T10:41:18;9.27;;;3.45;;
80778;SDS011;70170;47.856;10.956;2023-06-19T10:43:55;4.05;;;3.33;;
80778;SDS011;70170;47.856;10.956;2023-06-19T10:46:28;3.85;;;3.10;;
80778;SDS011;70170;47.856;10.956;2023-06-19T10:48:55;3.13;;;2.83;;
80778;SDS011;70170;47.856;10.956;2023-06-19T10:51:26;3.60;;;3.25;;
80778;SDS011;70170;47.856;10.956;2023-06-19T10:53:53;5.03;;;3.13;;
80778;SDS011;70170;47.856;10.956;2023-06-19T10:56:20;12.30;;;3.47;;
80778;SDS011;70170;47.856;10.956;2023-06-19T10:58:46;7.70;;;3.72;;
80778;SDS011;70170;47.856;10.956;2023-06-19T11:01:11;6.35;;;3.38;;
80778;SDS011;70170;47.856;10.956;2023-06-19T11:03:37;5.60;;;3.33;;
80778;SDS011;70170;47.856;10.956;2023-06-19T11:06:02;3.22;;;2.92;;
80778;SDS011;70170;47.856;10.956;2023-06-19T11:08:28;7.13;;;3.85;;
80778;SDS011;70170;47.856;10.956;2023-06-19T11:10:53;3.88;;;2.95;;
80778;SDS011;70170;47.856;10.956;2023-06-19T11:13:20;3.38;;;3.00;;
80778;SDS011;70170;47.856;10.956;2023-06-19T11:15:47;5.43;;;3.60;;
80778;SDS011;70170;47.856;10.956;2023-06-19T11:18:16;3.70;;;3.40;;
80778;SDS011;70170;47.856;10.956;2023-06-19T11:20:49;3.97;;;3.38;;
80778;SDS011;70170;47.856;10.956;2023-06-19T11:23:29;3.80;;;3.40;;
80778;SDS011;70170;47.856;10.956;2023-06-19T11:26:02;3.58;;;3.28;;
80778;SDS011;70170;47.856;10.956;2023-06-19T11:28:28;8.07;;;3.50;;
80778;SDS011;70170;47.856;10.956;2023-06-19T11:30:57;5.15;;;3.60;;
80778;SDS011;70170;47.856;10.956;2023-06-19T11:33:26;3.78;;;3.47;;
80778;SDS011;70170;47.856;10.956;2023-06-19T11:35:52;3.85;;;3.47;;
80778;SDS011;70170;47.856;10.956;2023-06-19T11:38:19;4.70;;;4.20;;
80778;SDS011;70170;47.856;10.956;2023-06-19T11:40:46;8.80;;;3.30;;
80778;SDS011;70170;47.856;10.956;2023-06-19T11:43:11;3.42;;;3.10;;
80778;SDS011;70170;47.856;10.956;2023-06-19T11:45:47;4.85;;;3.88;;
80778;SDS011;70170;47.856;10.956;2023-06-19T11:48:13;4.20;;;3.75;;
80778;SDS011;70170;47.856;10.956;2023-06-19T11:50:39;3.75;;;3.30;;
80778;SDS011;70170;47.856;10.956;2023-06-19T11:53:04;11.52;;;4.07;;
80778;SDS011;70170;47.856;10.956;2023-06-19T11:55:29;4.93;;;3.65;;
80778;SDS011;70170;47.856;10.956;2023-06-19T11:57:54;3.70;;;3.50;;
80778;SDS011;70170;47.856;10.956;2023-06-19T12:00:20;5.07;;;3.50;;
80778;SDS011;70170;47.856;10.956;2023-06-19T12:02:45;4.40;;;3.45;;
80778;SDS011;70170;47.856;10.956;2023-06-19T12:05:12;4.38;;;3.22;;
80778;SDS011;70170;47.856;10.956;2023-06-19T12:07:37;5.60;;;3.00;;
80778;SDS011;70170;47.856;10.956;2023-06-19T12:10:03;3.55;;;3.25;;
80778;SDS011;70170;47.856;10.956;2023-06-19T12:12:30;4.05;;;3.70;;
80778;SDS011;70170;47.856;10.956;2023-06-19T12:14:56;3.85;;;3.55;;
80778;SDS011;70170;47.856;10.956;2023-06-19T12:17:21;4.82;;;3.28;;
80778;SDS011;70170;47.856;10.956;2023-06-19T12:19:47;3.92;;;3.50;;
80778;SDS011;70170;47.856;10.956;2023-06-19T12:22:13;4.22;;;3.60;;
80778;SDS011;70170;47.856;10.956;2023-06-19T12:24:38;3.85;;;3.28;;
80778;SDS011;70170;47.856;10.956;2023-06-19T12:27:04;3.20;;;3.00;;
80778;SDS011;70170;47.856;10.956;2023-06-19T12:29:30;4.20;;;3.20;;
80778;SDS011;70170;47.856;10.956;2023-06-19T12:32:01;3.80;;;3.40;;
80778;SDS011;70170;47.856;10.956;2023-06-19T12:34:30;5.20;;;3.53;;
80778;SDS011;70170;47.856;10.956;2023-06-19T12:36:55;4.35;;;3.38;;
80778;SDS011;70170;47.856;10.956;2023-06-19T12:39:22;3.78;;;3.47;;
80778;SDS011;70170;47.856;10.956;2023-06-19T12:41:47;3.83;;;3.50;;
80778;SDS011;70170;47.856;10.956;2023-06-19T12:44:13;4.43;;;3.42;;
80778;SDS011;70170;47.856;10.956;2023-06-19T12:46:38;6.80;;;3.30;;
80778;SDS011;70170;47.856;10.956;2023-06-19T12:49:04;3.47;;;3.28;;
80778;SDS011;70170;47.856;10.956;2023-06-19T12:51:29;3.42;;;3.10;;
80778;SDS011;70170;47.856;10.956;2023-06-19T12:53:55;4.40;;;3.78;;
80778;SDS011;70170;47.856;10.956;2023-06-19T12:56:20;6.18;;;3.50;;
80778;SDS011;70170;47.856;10.956;2023-06-19T12:58:45;4.80;;;3.97;;
80778;SDS011;70170;47.856;10.956;2023-06-19T13:01:10;4.03;;;3.63;;
80778;SDS011;70170;47.856;10.956;2023-06-19T13:03:36;6.53;;;3.50;;
80778;SDS011;70170;47.856;10.956;2023-06-19T13:06:01;4.15;;;3.60;;
80778;SDS011;70170;47.856;10.956;2023-06-19T13:08:26;4.18;;;3.78;;
80778;SDS011;70170;47.856;10.956;2023-06-19T13:10:52;8.27;;;3.95;;
80778;SDS011;70170;47.856;10.956;2023-06-19T13:13:17;6.15;;;4.05;;
80778;SDS011;70170;47.856;10.956;2023-06-19T13:15:42;4.22;;;3.85;;
80778;SDS011;70170;47.856;10.956;2023-06-19T13:18:08;4.82;;;4.03;;
80778;SDS011;70170;47.856;10.956;2023-06-19T13:20:33;4.03;;;3.67;;
80778;SDS011;70170;47.856;10.956;2023-06-19T13:22:58;4.20;;;3.80;;
80778;SDS011;70170;47.856;10.956;2023-06-19T13:25:23;3.95;;;3.65;;
80778;SDS011;70170;47.856;10.956;2023-06-19T13:27:49;4.60;;;3.75;;
80778;SDS011;70170;47.856;10.956;2023-06-19T13:30:14;4.07;;;3.78;;
80778;SDS011;70170;47.856;10.956;2023-06-19T13:32:41;6.03;;;3.97;;
80778;SDS011;70170;47.856;10.956;2023-06-19T13:35:06;11.73;;;3.92;;
80778;SDS011;70170;47.856;10.956;2023-06-19T13:37:37;4.20;;;3.80;;
80778;SDS011;70170;47.856;10.956;2023-06-19T13:40:04;6.03;;;3.80;;
80778;SDS011;70170;47.856;10.956;2023-06-19T13:42:30;4.20;;;3.35;;
80778;SDS011;70170;47.856;10.956;2023-06-19T13:44:55;7.00;;;3.92;;
80778;SDS011;70170;47.856;10.956;2023-06-19T13:47:21;4.13;;;3.72;;
80778;SDS011;70170;47.856;10.956;2023-06-19T13:49:46;5.07;;;3.20;;
80778;SDS011;70170;47.856;10.956;2023-06-19T13:52:11;4.05;;;3.65;;
80778;SDS011;70170;47.856;10.956;2023-06-19T13:54:37;3.67;;;3.38;;
80778;SDS011;70170;47.856;10.956;2023-06-19T13:57:02;4.80;;;3.55;;
80778;SDS011;70170;47.856;10.956;2023-06-19T13:59:28;4.47;;;3.40;;
80778;SDS011;70170;47.856;10.956;2023-06-19T14:01:54;4.38;;;3.50;;
80778;SDS011;70170;47.856;10.956;2023-06-19T14:04:19;3.78;;;3.47;;
80778;SDS011;70170;47.856;10.956;2023-06-19T14:06:44;4.40;;;4.03;;
80778;SDS011;70170;47.856;10.956;2023-06-19T14:09:09;4.85;;;3.78;;
80778;SDS011;70170;47.856;10.956;2023-06-19T14:11:35;3.80;;;3.50;;
80778;SDS011;70170;47.856;10.956;2023-06-19T14:14:00;4.70;;;3.88;;
80778;SDS011;70170;47.856;10.956;2023-06-19T14:16:26;7.82;;;3.63;;
80778;SDS011;70170;47.856;10.956;2023-06-19T14:18:51;4.85;;;3.80;;
80778;SDS011;70170;47.856;10.956;2023-06-19T14:21:16;4.40;;;3.60;;
80778;SDS011;70170;47.856;10.956;2023-06-19T14:23:42;3.97;;;3.50;;
80778;SDS011;70170;47.856;10.956;2023-06-19T14:26:10;3.70;;;3.40;;
80778;SDS011;70170;47.856;10.956;2023-06-19T14:28:36;3.85;;;3.55;;